sensor_id;sensor_type;location;lat;lon;timestamp;temperature;humidity
8269;DHT22;4174;48.304;16.364;2022-07-04T00:05:42;19.50;99.90
8269;DHT22;4174;48.304;16.364;2022-07-04T00:11:45;19.40;99.90
8269;DHT22;4174;48.304;16.364;2022-07-04T00:17:48;19.30;99.90
8269;DHT22;4174;48.304;16.364;2022-07-04T00:23:50;19.30;99.90
8269;DHT22;4174;48.304;16.364;2022-07-04T00:29:53;19.30;99.90
8269;DHT22;4174;48.304;16.364;2022-07-04T00:35:56;19.20;99.90
8269;DHT22;4174;48.304;16.364;2022-07-04T00:41:59;19.10;99.90
8269;DHT22;4174;48.304;16.364;2022-07-04T00:48:01;19.10;99.90
8269;DHT22;4174;48.304;16.364;2022-07-04T00:54:06;19.00;99.90
8269;DHT22;4174;48.304;16.364;2022-07-04T01:00:07;19.00;99.90
8269;DHT22;4174;48.304;16.364;2022-07-04T01:06:11;18.90;99.90
8269;DHT22;4174;48.304;16.364;2022-07-04T01:18:25;18.70;99.90
8269;DHT22;4174;48.304;16.364;2022-07-04T01:24:28;18.70;99.90
8269;DHT22;4174;48.304;16.364;2022-07-04T01:30:31;18.70;99.90
8269;DHT22;4174;48.304;16.364;2022-07-04T01:36:34;18.60;99.90
8269;DHT22;4174;48.304;16.364;2022-07-04T01:42:38;18.50;99.90
8269;DHT22;4174;48.304;16.364;2022-07-04T01:48:40;18.40;99.90
8269;DHT22;4174;48.304;16.364;2022-07-04T01:54:43;18.40;99.90
8269;DHT22;4174;48.304;16.364;2022-07-04T02:00:47;18.40;99.90
8269;DHT22;4174;48.304;16.364;2022-07-04T02:06:55;18.30;99.90
8269;DHT22;4174;48.304;16.364;2022-07-04T02:12:58;18.30;99.90
8269;DHT22;4174;48.304;16.364;2022-07-04T02:19:03;18.30;99.90
8269;DHT22;4174;48.304;16.364;2022-07-04T02:25:06;18.20;99.90
8269;DHT22;4174;48.304;16.364;2022-07-04T02:31:10;18.10;99.90
8269;DHT22;4174;48.304;16.364;2022-07-04T02:37:13;18.10;99.90
8269;DHT22;4174;48.304;16.364;2022-07-04T02:43:18;18.10;99.90
8269;DHT22;4174;48.304;16.364;2022-07-04T02:49:20;18.10;99.90
8269;DHT22;4174;48.304;16.364;2022-07-04T02:55:23;18.00;99.90
8269;DHT22;4174;48.304;16.364;2022-07-04T03:01:26;18.00;99.90
8269;DHT22;4174;48.304;16.364;2022-07-04T03:07:29;17.90;99.90
8269;DHT22;4174;48.304;16.364;2022-07-04T03:13:32;17.90;99.90
8269;DHT22;4174;48.304;16.364;2022-07-04T03:19:36;17.90;99.90
8269;DHT22;4174;48.304;16.364;2022-07-04T03:25:39;17.90;99.90
8269;DHT22;4174;48.304;16.364;2022-07-04T03:31:43;18.00;99.90
8269;DHT22;4174;48.304;16.364;2022-07-04T03:37:46;18.00;99.90
8269;DHT22;4174;48.304;16.364;2022-07-04T03:43:49;18.10;99.90
8269;DHT22;4174;48.304;16.364;2022-07-04T03:49:53;18.20;99.90
8269;DHT22;4174;48.304;16.364;2022-07-04T03:55:56;18.10;99.90
8269;DHT22;4174;48.304;16.364;2022-07-04T04:01:59;18.20;99.90
8269;DHT22;4174;48.304;16.364;2022-07-04T04:08:02;18.40;99.90
8269;DHT22;4174;48.304;16.364;2022-07-04T04:14:06;18.50;99.90
8269;DHT22;4174;48.304;16.364;2022-07-04T04:20:10;19.10;99.90
8269;DHT22;4174;48.304;16.364;2022-07-04T04:26:13;19.30;99.90
8269;DHT22;4174;48.304;16.364;2022-07-04T04:32:18;19.70;99.90
8269;DHT22;4174;48.304;16.364;2022-07-04T04:38:20;19.70;99.90
8269;DHT22;4174;48.304;16.364;2022-07-04T04:44:23;20.00;99.90
8269;DHT22;4174;48.304;16.364;2022-07-04T04:50:26;20.40;99.90
8269;DHT22;4174;48.304;16.364;2022-07-04T04:56:31;20.90;99.90
8269;DHT22;4174;48.304;16.364;2022-07-04T05:02:33;20.90;99.90
8269;DHT22;4174;48.304;16.364;2022-07-04T05:08:36;21.50;99.90
8269;DHT22;4174;48.304;16.364;2022-07-04T05:14:39;22.00;99.90
8269;DHT22;4174;48.304;16.364;2022-07-04T05:20:41;22.80;99.90
8269;DHT22;4174;48.304;16.364;2022-07-04T05:26:44;23.90;99.90
8269;DHT22;4174;48.304;16.364;2022-07-04T05:32:48;27.20;99.90
8269;DHT22;4174;48.304;16.364;2022-07-04T05:38:52;28.30;99.90
8269;DHT22;4174;48.304;16.364;2022-07-04T05:44:55;28.20;99.90
8269;DHT22;4174;48.304;16.364;2022-07-04T05:50:58;32.60;99.90
8269;DHT22;4174;48.304;16.364;2022-07-04T05:57:02;31.10;96.70
8269;DHT22;4174;48.304;16.364;2022-07-04T06:03:06;31.00;96.70
8269;DHT22;4174;48.304;16.364;2022-07-04T06:09:08;28.40;99.90
8269;DHT22;4174;48.304;16.364;2022-07-04T06:15:12;29.50;99.90
8269;DHT22;4174;48.304;16.364;2022-07-04T06:21:15;29.50;99.90
8269;DHT22;4174;48.304;16.364;2022-07-04T06:27:18;31.70;99.90
8269;DHT22;4174;48.304;16.364;2022-07-04T06:33:21;29.90;99.90
8269;DHT22;4174;48.304;16.364;2022-07-04T06:39:24;28.30;99.90
8269;DHT22;4174;48.304;16.364;2022-07-04T06:45:28;27.20;99.90
8269;DHT22;4174;48.304;16.364;2022-07-04T06:51:32;25.50;99.90
8269;DHT22;4174;48.304;16.364;2022-07-04T06:57:35;25.40;99.90
8269;DHT22;4174;48.304;16.364;2022-07-04T07:03:38;25.70;99.90
8269;DHT22;4174;48.304;16.364;2022-07-04T07:09:41;26.10;99.90
8269;DHT22;4174;48.304;16.364;2022-07-04T07:15:44;26.30;99.90
8269;DHT22;4174;48.304;16.364;2022-07-04T07:21:47;27.00;99.90
8269;DHT22;4174;48.304;16.364;2022-07-04T07:27:50;27.00;99.90
8269;DHT22;4174;48.304;16.364;2022-07-04T07:33:54;27.70;99.90
8269;DHT22;4174;48.304;16.364;2022-07-04T07:39:57;28.10;99.90
8269;DHT22;4174;48.304;16.364;2022-07-04T07:45:59;28.20;99.90
8269;DHT22;4174;48.304;16.364;2022-07-04T07:52:03;28.30;99.90
8269;DHT22;4174;48.304;16.364;2022-07-04T07:58:06;28.00;99.90
8269;DHT22;4174;48.304;16.364;2022-07-04T08:04:09;27.60;99.90
8269;DHT22;4174;48.304;16.364;2022-07-04T08:10:17;27.40;99.90
8269;DHT22;4174;48.304;16.364;2022-07-04T08:16:20;27.90;99.90
8269;DHT22;4174;48.304;16.364;2022-07-04T08:22:22;29.50;99.90
8269;DHT22;4174;48.304;16.364;2022-07-04T08:28:26;32.10;99.90
8269;DHT22;4174;48.304;16.364;2022-07-04T08:34:27;33.30;97.10
8269;DHT22;4174;48.304;16.364;2022-07-04T08:40:30;34.00;94.10
8269;DHT22;4174;48.304;16.364;2022-07-04T08:46:32;34.00;87.80
8269;DHT22;4174;48.304;16.364;2022-07-04T08:52:37;33.70;92.30
8269;DHT22;4174;48.304;16.364;2022-07-04T08:58:40;33.60;84.90
8269;DHT22;4174;48.304;16.364;2022-07-04T09:04:42;33.10;90.40
8269;DHT22;4174;48.304;16.364;2022-07-04T09:10:44;32.60;91.50
8269;DHT22;4174;48.304;16.364;2022-07-04T09:16:48;32.00;88.50
8269;DHT22;4174;48.304;16.364;2022-07-04T09:22:52;31.20;92.40
8269;DHT22;4174;48.304;16.364;2022-07-04T09:28:54;30.40;94.40
8269;DHT22;4174;48.304;16.364;2022-07-04T09:34:56;30.00;95.60
8269;DHT22;4174;48.304;16.364;2022-07-04T09:41:00;29.40;98.00
8269;DHT22;4174;48.304;16.364;2022-07-04T09:53:25;28.30;99.90
8269;DHT22;4174;48.304;16.364;2022-07-04T09:59:23;28.00;99.90
8269;DHT22;4174;48.304;16.364;2022-07-04T10:05:26;27.80;99.90
8269;DHT22;4174;48.304;16.364;2022-07-04T10:11:32;27.70;99.90
8269;DHT22;4174;48.304;16.364;2022-07-04T10:17:34;27.60;99.90
8269;DHT22;4174;48.304;16.364;2022-07-04T10:23:37;27.60;99.90
8269;DHT22;4174;48.304;16.364;2022-07-04T10:29:40;27.70;99.90
8269;DHT22;4174;48.304;16.364;2022-07-04T10:35:48;28.00;99.90
8269;DHT22;4174;48.304;16.364;2022-07-04T10:41:55;28.00;99.90
8269;DHT22;4174;48.304;16.364;2022-07-04T10:47:57;29.20;99.90
8269;DHT22;4174;48.304;16.364;2022-07-04T10:54:00;29.80;99.90
8269;DHT22;4174;48.304;16.364;2022-07-04T11:00:06;30.40;99.60
8269;DHT22;4174;48.304;16.364;2022-07-04T11:12:24;32.10;95.60
8269;DHT22;4174;48.304;16.364;2022-07-04T11:18:27;33.00;94.30
8269;DHT22;4174;48.304;16.364;2022-07-04T11:24:31;32.80;91.70
8269;DHT22;4174;48.304;16.364;2022-07-04T11:30:34;32.40;92.00
8269;DHT22;4174;48.304;16.364;2022-07-04T11:36:37;32.30;92.00
8269;DHT22;4174;48.304;16.364;2022-07-04T11:42:40;32.00;93.30
8269;DHT22;4174;48.304;16.364;2022-07-04T11:55:13;32.70;92.00
8269;DHT22;4174;48.304;16.364;2022-07-04T12:01:14;33.10;93.30
8269;DHT22;4174;48.304;16.364;2022-07-04T12:07:18;34.70;88.30
8269;DHT22;4174;48.304;16.364;2022-07-04T12:13:20;35.90;85.00
8269;DHT22;4174;48.304;16.364;2022-07-04T12:19:23;36.40;73.40
8269;DHT22;4174;48.304;16.364;2022-07-04T12:25:30;36.50;74.50
8269;DHT22;4174;48.304;16.364;2022-07-04T12:31:41;36.50;74.80
8269;DHT22;4174;48.304;16.364;2022-07-04T12:37:41;36.20;71.10
8269;DHT22;4174;48.304;16.364;2022-07-04T12:43:46;36.30;73.00
8269;DHT22;4174;48.304;16.364;2022-07-04T12:49:49;36.20;69.30
8269;DHT22;4174;48.304;16.364;2022-07-04T12:55:53;36.20;69.20
8269;DHT22;4174;48.304;16.364;2022-07-04T13:01:56;36.20;68.90
8269;DHT22;4174;48.304;16.364;2022-07-04T13:08:01;36.20;67.50
8269;DHT22;4174;48.304;16.364;2022-07-04T13:14:03;36.00;68.20
8269;DHT22;4174;48.304;16.364;2022-07-04T13:20:07;35.20;69.50
8269;DHT22;4174;48.304;16.364;2022-07-04T13:26:12;35.20;69.30
8269;DHT22;4174;48.304;16.364;2022-07-04T13:32:15;35.00;67.50
8269;DHT22;4174;48.304;16.364;2022-07-04T13:38:18;34.90;69.50
8269;DHT22;4174;48.304;16.364;2022-07-04T13:44:22;34.50;69.50
8269;DHT22;4174;48.304;16.364;2022-07-04T13:50:24;34.20;69.30
8269;DHT22;4174;48.304;16.364;2022-07-04T13:56:27;33.90;70.40
8269;DHT22;4174;48.304;16.364;2022-07-04T14:02:31;33.20;75.10
8269;DHT22;4174;48.304;16.364;2022-07-04T14:08:33;33.10;75.00
8269;DHT22;4174;48.304;16.364;2022-07-04T14:14:36;33.10;70.70
8269;DHT22;4174;48.304;16.364;2022-07-04T14:20:40;33.20;74.90
8269;DHT22;4174;48.304;16.364;2022-07-04T14:26:42;33.30;72.30
8269;DHT22;4174;48.304;16.364;2022-07-04T14:32:44;33.50;69.50
8269;DHT22;4174;48.304;16.364;2022-07-04T14:38:48;33.30;68.90
8269;DHT22;4174;48.304;16.364;2022-07-04T14:44:51;33.00;75.10
8269;DHT22;4174;48.304;16.364;2022-07-04T14:50:54;32.60;74.30
8269;DHT22;4174;48.304;16.364;2022-07-04T14:56:57;32.40;72.10
8269;DHT22;4174;48.304;16.364;2022-07-04T15:03:00;32.30;72.10
8269;DHT22;4174;48.304;16.364;2022-07-04T15:09:03;32.10;74.90
8269;DHT22;4174;48.304;16.364;2022-07-04T15:15:06;31.90;72.20
8269;DHT22;4174;48.304;16.364;2022-07-04T15:21:11;31.40;75.90
8269;DHT22;4174;48.304;16.364;2022-07-04T15:27:19;31.40;75.80
8269;DHT22;4174;48.304;16.364;2022-07-04T15:33:23;31.20;76.40
8269;DHT22;4174;48.304;16.364;2022-07-04T15:39:25;30.80;79.50
8269;DHT22;4174;48.304;16.364;2022-07-04T15:45:28;30.50;85.10
8269;DHT22;4174;48.304;16.364;2022-07-04T15:51:31;30.10;89.40
8269;DHT22;4174;48.304;16.364;2022-07-04T15:57:35;29.90;90.40
8269;DHT22;4174;48.304;16.364;2022-07-04T16:03:37;29.80;92.20
8269;DHT22;4174;48.304;16.364;2022-07-04T16:09:42;29.20;94.60
8269;DHT22;4174;48.304;16.364;2022-07-04T16:15:45;29.20;94.60
8269;DHT22;4174;48.304;16.364;2022-07-04T16:21:48;28.80;95.70
8269;DHT22;4174;48.304;16.364;2022-07-04T16:27:52;28.50;97.20
8269;DHT22;4174;48.304;16.364;2022-07-04T16:33:55;28.20;99.70
8269;DHT22;4174;48.304;16.364;2022-07-04T16:39:58;27.90;99.90
8269;DHT22;4174;48.304;16.364;2022-07-04T16:46:02;27.70;99.90
8269;DHT22;4174;48.304;16.364;2022-07-04T16:52:05;27.60;99.90
8269;DHT22;4174;48.304;16.364;2022-07-04T16:58:08;27.40;99.90
8269;DHT22;4174;48.304;16.364;2022-07-04T17:04:11;27.30;99.90
8269;DHT22;4174;48.304;16.364;2022-07-04T17:10:14;27.10;99.90
8269;DHT22;4174;48.304;16.364;2022-07-04T17:16:19;27.00;99.90
8269;DHT22;4174;48.304;16.364;2022-07-04T17:22:22;27.00;99.90
8269;DHT22;4174;48.304;16.364;2022-07-04T17:28:24;26.90;99.90
8269;DHT22;4174;48.304;16.364;2022-07-04T17:34:27;26.70;99.90
8269;DHT22;4174;48.304;16.364;2022-07-04T17:40:31;26.70;99.90
8269;DHT22;4174;48.304;16.364;2022-07-04T17:46:34;26.50;99.90
8269;DHT22;4174;48.304;16.364;2022-07-04T17:52:36;26.40;99.90
8269;DHT22;4174;48.304;16.364;2022-07-04T17:58:39;26.30;99.90
8269;DHT22;4174;48.304;16.364;2022-07-04T18:04:42;26.20;99.90
8269;DHT22;4174;48.304;16.364;2022-07-04T18:10:45;26.00;99.90
8269;DHT22;4174;48.304;16.364;2022-07-04T18:16:48;26.00;99.90
8269;DHT22;4174;48.304;16.364;2022-07-04T18:22:51;25.80;99.90
8269;DHT22;4174;48.304;16.364;2022-07-04T18:28:54;25.70;99.90
8269;DHT22;4174;48.304;16.364;2022-07-04T18:34:57;25.60;99.90
8269;DHT22;4174;48.304;16.364;2022-07-04T18:40:59;25.50;99.90
8269;DHT22;4174;48.304;16.364;2022-07-04T18:47:08;25.50;99.90
8269;DHT22;4174;48.304;16.364;2022-07-04T18:53:11;25.30;99.90
8269;DHT22;4174;48.304;16.364;2022-07-04T18:59:14;25.10;99.90
8269;DHT22;4174;48.304;16.364;2022-07-04T19:05:18;24.90;99.90
8269;DHT22;4174;48.304;16.364;2022-07-04T19:11:21;24.70;99.90
8269;DHT22;4174;48.304;16.364;2022-07-04T19:17:24;24.50;99.90
8269;DHT22;4174;48.304;16.364;2022-07-04T19:23:28;24.40;99.90
8269;DHT22;4174;48.304;16.364;2022-07-04T19:29:31;24.20;99.90
8269;DHT22;4174;48.304;16.364;2022-07-04T19:35:34;24.10;99.90
8269;DHT22;4174;48.304;16.364;2022-07-04T19:41:37;23.90;99.90
8269;DHT22;4174;48.304;16.364;2022-07-04T19:47:41;23.90;99.90
8269;DHT22;4174;48.304;16.364;2022-07-04T19:53:44;23.70;99.90
8269;DHT22;4174;48.304;16.364;2022-07-04T19:59:47;23.60;99.90
8269;DHT22;4174;48.304;16.364;2022-07-04T20:05:51;23.40;99.90
8269;DHT22;4174;48.304;16.364;2022-07-04T20:11:54;23.40;99.90
8269;DHT22;4174;48.304;16.364;2022-07-04T20:17:57;23.20;99.90
8269;DHT22;4174;48.304;16.364;2022-07-04T20:24:00;23.00;99.90
8269;DHT22;4174;48.304;16.364;2022-07-04T20:30:04;22.80;99.90
8269;DHT22;4174;48.304;16.364;2022-07-04T20:36:07;22.60;99.90
8269;DHT22;4174;48.304;16.364;2022-07-04T20:42:10;22.50;99.90
8269;DHT22;4174;48.304;16.364;2022-07-04T20:48:14;22.10;99.90
8269;DHT22;4174;48.304;16.364;2022-07-04T20:54:19;22.10;99.90
8269;DHT22;4174;48.304;16.364;2022-07-04T21:00:22;22.00;99.90
8269;DHT22;4174;48.304;16.364;2022-07-04T21:06:26;21.90;99.90
8269;DHT22;4174;48.304;16.364;2022-07-04T21:12:28;21.90;99.90
8269;DHT22;4174;48.304;16.364;2022-07-04T21:18:31;21.90;99.90
8269;DHT22;4174;48.304;16.364;2022-07-04T21:24:34;21.80;99.90
8269;DHT22;4174;48.304;16.364;2022-07-04T21:30:37;21.80;99.90
8269;DHT22;4174;48.304;16.364;2022-07-04T21:36:40;21.80;99.90
8269;DHT22;4174;48.304;16.364;2022-07-04T21:42:43;21.70;99.90
8269;DHT22;4174;48.304;16.364;2022-07-04T21:48:46;21.70;99.90
8269;DHT22;4174;48.304;16.364;2022-07-04T21:54:49;21.60;99.90
8269;DHT22;4174;48.304;16.364;2022-07-04T22:00:52;21.60;99.90
8269;DHT22;4174;48.304;16.364;2022-07-04T22:06:55;21.50;99.90
8269;DHT22;4174;48.304;16.364;2022-07-04T22:12:58;21.50;99.90
8269;DHT22;4174;48.304;16.364;2022-07-04T22:19:01;21.30;99.90
8269;DHT22;4174;48.304;16.364;2022-07-04T22:25:04;21.20;99.90
8269;DHT22;4174;48.304;16.364;2022-07-04T22:31:08;21.20;99.90
8269;DHT22;4174;48.304;16.364;2022-07-04T22:37:11;21.20;99.90
8269;DHT22;4174;48.304;16.364;2022-07-04T22:43:15;21.10;99.90
8269;DHT22;4174;48.304;16.364;2022-07-04T22:49:18;21.10;99.90
8269;DHT22;4174;48.304;16.364;2022-07-04T22:55:21;21.10;99.90
8269;DHT22;4174;48.304;16.364;2022-07-04T23:01:25;21.00;99.90
8269;DHT22;4174;48.304;16.364;2022-07-04T23:07:26;21.00;99.90
8269;DHT22;4174;48.304;16.364;2022-07-04T23:13:29;20.90;99.90
8269;DHT22;4174;48.304;16.364;2022-07-04T23:19:32;20.90;99.90
8269;DHT22;4174;48.304;16.364;2022-07-04T23:25:35;20.90;99.90
8269;DHT22;4174;48.304;16.364;2022-07-04T23:31:39;20.90;99.90
8269;DHT22;4174;48.304;16.364;2022-07-04T23:37:41;20.90;99.90
8269;DHT22;4174;48.304;16.364;2022-07-04T23:43:44;20.80;99.90
8269;DHT22;4174;48.304;16.364;2022-07-04T23:49:48;20.80;99.90
8269;DHT22;4174;48.304;16.364;2022-07-04T23:55:51;20.70;99.90
